Time;durP1;ratioP1;P1;durP2;ratioP2;P2;SDS_P1;SDS_P2;PMS_P1;PMS_P2;Temp;Humidity;BMP_temperature;BMP_pressure;BME280_temperature;BME280_humidity;BME280_pressure;Samples;Min_cycle;Max_cycle;Signal;HPM_P1;HPM_P2
2021/11/23 00:00:16;;;;;;;10.30;8.88;;;;;;;;;;5056727;28;20211;-75
2021/11/23 00:02:44;;;;;;;11.55;9.85;;;;;;;;;;5067344;28;20198;-75
2021/11/23 00:05:12;;;;;;;10.93;8.25;;;;;;;;;;5066067;28;20688;-75
2021/11/23 00:07:41;;;;;;;12.75;7.72;;;;;;;;;;5058359;28;20194;-75
2021/11/23 00:10:08;;;;;;;9.38;7.70;;;;;;;;;;5055415;28;20203;-75
2021/11/23 00:12:35;;;;;;;11.60;9.23;;;;;;;;;;5052644;28;20218;-75
2021/11/23 00:15:03;;;;;;;9.98;8.02;;;;;;;;;;5063901;28;20539;-74
2021/11/23 00:17:30;;;;;;;8.85;7.90;;;;;;;;;;5061726;28;20661;-75
2021/11/23 00:19:57;;;;;;;8.77;6.75;;;;;;;;;;5058674;28;20202;-75
2021/11/23 00:22:24;;;;;;;14.77;8.82;;;;;;;;;;5065558;28;20607;-77
2021/11/23 00:24:53;;;;;;;9.50;6.93;;;;;;;;;;5068715;28;20588;-75
2021/11/23 00:27:20;;;;;;;12.50;7.70;;;;;;;;;;5052743;28;20191;-76
2021/11/23 00:29:47;;;;;;;11.18;7.75;;;;;;;;;;5058615;28;20196;-75
2021/11/23 00:32:14;;;;;;;10.43;7.78;;;;;;;;;;5055384;28;20202;-76
2021/11/23 00:34:41;;;;;;;10.07;8.02;;;;;;;;;;5056882;28;20650;-75
2021/11/23 00:37:08;;;;;;;12.13;8.40;;;;;;;;;;5051575;28;20202;-75
2021/11/23 00:39:36;;;;;;;10.32;7.68;;;;;;;;;;5062183;28;20366;-74
2021/11/23 00:42:05;;;;;;;10.98;8.05;;;;;;;;;;5054421;28;20597;-75
2021/11/23 00:44:32;;;;;;;11.80;9.25;;;;;;;;;;5060933;28;20214;-74
2021/11/23 00:46:59;;;;;;;10.20;8.15;;;;;;;;;;5066632;28;20199;-74
2021/11/23 00:49:26;;;;;;;10.10;8.88;;;;;;;;;;5058053;28;20566;-74
2021/11/23 00:51:53;;;;;;;9.27;7.63;;;;;;;;;;5059324;28;20269;-75
2021/11/23 00:54:20;;;;;;;10.38;7.28;;;;;;;;;;5056308;28;20202;-75
2021/11/23 00:56:47;;;;;;;11.57;8.68;;;;;;;;;;5064141;28;20206;-74
2021/11/23 00:59:16;;;;;;;11.13;8.77;;;;;;;;;;5059225;28;20223;-75
2021/11/23 01:01:43;;;;;;;14.20;7.03;;;;;;;;;;5064020;28;20600;-74
2021/11/23 01:04:10;;;;;;;10.90;8.50;;;;;;;;;;5061434;28;20215;-74
2021/11/23 01:06:37;;;;;;;10.10;8.60;;;;;;;;;;5061930;28;20221;-74
2021/11/23 01:09:04;;;;;;;11.50;9.13;;;;;;;;;;5064651;28;20198;-74
2021/11/23 01:11:31;;;;;;;12.43;7.45;;;;;;;;;;5057985;28;20211;-75
2021/11/23 01:13:59;;;;;;;12.73;10.38;;;;;;;;;;5053896;28;20233;-75
2021/11/23 01:16:27;;;;;;;8.25;7.45;;;;;;;;;;5060664;28;20202;-75
2021/11/23 01:18:54;;;;;;;8.48;7.53;;;;;;;;;;5057719;28;20557;-75
2021/11/23 01:21:21;;;;;;;10.70;7.38;;;;;;;;;;5059616;28;20654;-75
2021/11/23 01:23:48;;;;;;;8.27;7.47;;;;;;;;;;5061624;28;20265;-74
2021/11/23 01:26:16;;;;;;;8.73;7.82;;;;;;;;;;5060404;28;20194;-75
2021/11/23 01:28:43;;;;;;;9.45;7.57;;;;;;;;;;5055177;28;20670;-75
2021/11/23 01:31:10;;;;;;;10.32;7.30;;;;;;;;;;5059465;28;20198;-74
2021/11/23 01:33:39;;;;;;;8.68;7.78;;;;;;;;;;5050512;28;20233;-74
2021/11/23 01:36:06;;;;;;;11.32;8.65;;;;;;;;;;5070056;28;20569;-75
2021/11/23 01:38:34;;;;;;;13.27;8.40;;;;;;;;;;5062597;28;20387;-74
2021/11/23 01:41:02;;;;;;;13.77;7.60;;;;;;;;;;5058986;28;20199;-75
2021/11/23 01:43:29;;;;;;;8.63;7.72;;;;;;;;;;5054468;28;20195;-75
2021/11/23 01:45:56;;;;;;;10.52;8.05;;;;;;;;;;5070448;28;20193;-75
2021/11/23 01:48:23;;;;;;;7.55;6.78;;;;;;;;;;5070831;28;20198;-75
2021/11/23 01:50:52;;;;;;;10.05;8.30;;;;;;;;;;5061480;28;20208;-76
2021/11/23 01:53:19;;;;;;;11.10;8.38;;;;;;;;;;5060371;28;20199;-75
2021/11/23 01:55:46;;;;;;;9.38;6.78;;;;;;;;;;5065952;28;20657;-75
2021/11/23 01:58:14;;;;;;;10.20;7.93;;;;;;;;;;5058991;28;20209;-76
2021/11/23 02:00:42;;;;;;;10.13;8.63;;;;;;;;;;5065344;28;20299;-74
2021/11/23 02:03:09;;;;;;;8.95;7.80;;;;;;;;;;5066311;28;20198;-76
2021/11/23 02:05:36;;;;;;;9.43;8.15;;;;;;;;;;5069162;28;20272;-75
2021/11/23 02:08:05;;;;;;;10.60;8.20;;;;;;;;;;5058359;28;20214;-75
2021/11/23 02:10:32;;;;;;;9.50;7.95;;;;;;;;;;5062378;28;20199;-75
2021/11/23 02:13:00;;;;;;;8.80;7.07;;;;;;;;;;5073917;28;20247;-74
2021/11/23 02:15:27;;;;;;;9.93;6.40;;;;;;;;;;5059744;28;20210;-74
2021/11/23 02:17:55;;;;;;;8.98;7.10;;;;;;;;;;5066840;28;20675;-74
2021/11/23 02:20:24;;;;;;;11.23;7.65;;;;;;;;;;5053050;28;20203;-76
2021/11/23 02:22:51;;;;;;;8.25;7.43;;;;;;;;;;5069853;28;20641;-74
2021/11/23 02:25:20;;;;;;;10.18;8.52;;;;;;;;;;5056578;28;20214;-74
2021/11/23 02:27:48;;;;;;;8.43;7.22;;;;;;;;;;5065911;28;20206;-75
2021/11/23 02:30:15;;;;;;;7.95;6.80;;;;;;;;;;5067431;28;20676;-75
2021/11/23 02:32:43;;;;;;;7.25;6.47;;;;;;;;;;5062266;28;20200;-74
2021/11/23 02:35:10;;;;;;;7.88;7.07;;;;;;;;;;5056692;28;20186;-74
2021/11/23 02:37:43;;;;;;;7.63;6.85;;;;;;;;;;5061242;28;20616;-75
2021/11/23 02:40:10;;;;;;;9.95;7.68;;;;;;;;;;5064947;28;20568;-74
2021/11/23 02:42:37;;;;;;;9.23;6.43;;;;;;;;;;5059277;28;20607;-74
2021/11/23 02:45:05;;;;;;;7.85;6.20;;;;;;;;;;5060164;28;20694;-76
2021/11/23 02:47:33;;;;;;;9.15;7.07;;;;;;;;;;5068431;28;20547;-75
2021/11/23 02:50:00;;;;;;;8.35;6.50;;;;;;;;;;5062022;28;20230;-75
2021/11/23 02:52:27;;;;;;;7.75;6.78;;;;;;;;;;5070948;28;20202;-75
2021/11/23 02:54:56;;;;;;;9.23;6.90;;;;;;;;;;5060256;28;20203;-75
2021/11/23 02:57:26;;;;;;;9.85;8.00;;;;;;;;;;5054223;28;20207;-75
2021/11/23 02:59:54;;;;;;;10.93;7.53;;;;;;;;;;5058663;28;20222;-75
2021/11/23 03:02:21;;;;;;;8.20;7.47;;;;;;;;;;5060452;28;20202;-77
2021/11/23 03:04:52;;;;;;;8.88;6.72;;;;;;;;;;5070370;28;20678;-75
2021/11/23 03:07:19;;;;;;;8.55;6.38;;;;;;;;;;5065724;28;20201;-76
2021/11/23 03:09:46;;;;;;;6.82;6.22;;;;;;;;;;5059098;28;20203;-75
2021/11/23 03:12:16;;;;;;;10.40;7.45;;;;;;;;;;5053391;28;20202;-75
2021/11/23 03:14:43;;;;;;;10.40;6.93;;;;;;;;;;5062999;28;20205;-75
2021/11/23 03:17:10;;;;;;;9.40;6.22;;;;;;;;;;5061745;28;20187;-75
2021/11/23 03:19:37;;;;;;;7.85;6.55;;;;;;;;;;5060363;28;20638;-75
2021/11/23 03:22:04;;;;;;;8.30;7.53;;;;;;;;;;5057750;28;20209;-74
2021/11/23 03:24:31;;;;;;;8.13;7.20;;;;;;;;;;5063316;28;20684;-75
2021/11/23 03:26:58;;;;;;;7.30;6.60;;;;;;;;;;5068266;28;20601;-75
2021/11/23 03:29:27;;;;;;;9.43;7.57;;;;;;;;;;5062637;28;20209;-75
2021/11/23 03:31:54;;;;;;;8.68;7.07;;;;;;;;;;5059551;28;20720;-75
2021/11/23 03:34:22;;;;;;;8.27;7.13;;;;;;;;;;5053612;28;20286;-76
2021/11/23 03:36:49;;;;;;;10.23;7.78;;;;;;;;;;5064735;28;20203;-74
2021/11/23 03:39:16;;;;;;;7.13;6.45;;;;;;;;;;5055963;28;20202;-74
2021/11/23 03:41:44;;;;;;;9.15;6.40;;;;;;;;;;5070553;28;20202;-77
2021/11/23 03:44:11;;;;;;;9.27;7.40;;;;;;;;;;5056051;28;20612;-77
2021/11/23 03:46:39;;;;;;;8.52;6.70;;;;;;;;;;5066192;28;20542;-77
2021/11/23 03:49:06;;;;;;;7.93;6.82;;;;;;;;;;5056166;28;20642;-77
2021/11/23 03:51:33;;;;;;;11.07;7.30;;;;;;;;;;5061324;28;20198;-77
2021/11/23 03:54:00;;;;;;;8.27;6.32;;;;;;;;;;5054929;28;20574;-77
2021/11/23 03:56:27;;;;;;;8.00;6.47;;;;;;;;;;5061646;28;20255;-77
2021/11/23 03:58:54;;;;;;;9.43;6.47;;;;;;;;;;5054875;28;20206;-77
2021/11/23 04:01:22;;;;;;;6.40;5.78;;;;;;;;;;5059068;28;20598;-77
2021/11/23 04:03:50;;;;;;;7.38;5.60;;;;;;;;;;5052907;28;20226;-77
2021/11/23 04:06:17;;;;;;;8.50;6.63;;;;;;;;;;5056185;28;20245;-76
2021/11/23 04:08:44;;;;;;;8.45;5.95;;;;;;;;;;5066255;28;20221;-77
2021/11/23 04:11:11;;;;;;;7.95;7.13;;;;;;;;;;5066400;28;20664;-76
2021/11/23 04:13:40;;;;;;;7.40;6.50;;;;;;;;;;5065115;28;20194;-76
2021/11/23 04:16:07;;;;;;;6.75;5.82;;;;;;;;;;5061425;28;20225;-76
2021/11/23 04:18:34;;;;;;;8.25;5.95;;;;;;;;;;5058200;28;20231;-76
2021/11/23 04:21:03;;;;;;;7.35;6.60;;;;;;;;;;5058342;28;20198;-77
2021/11/23 04:23:30;;;;;;;7.97;6.50;;;;;;;;;;5061131;28;20670;-77
2021/11/23 04:25:57;;;;;;;7.20;5.35;;;;;;;;;;5063367;28;20726;-77
2021/11/23 04:28:24;;;;;;;7.50;6.60;;;;;;;;;;5051294;28;20573;-77
2021/11/23 04:30:51;;;;;;;7.60;5.90;;;;;;;;;;5057807;28;20660;-77
2021/11/23 04:33:18;;;;;;;9.05;8.15;;;;;;;;;;5058316;28;20194;-78
2021/11/23 04:35:46;;;;;;;16.17;6.07;;;;;;;;;;5055194;28;20194;-77
2021/11/23 04:38:14;;;;;;;7.85;6.45;;;;;;;;;;5054938;28;20198;-77
2021/11/23 04:40:41;;;;;;;8.35;6.53;;;;;;;;;;5053826;28;20250;-77
2021/11/23 04:43:09;;;;;;;8.82;6.45;;;;;;;;;;5065811;28;20664;-78
2021/11/23 04:45:37;;;;;;;8.20;6.20;;;;;;;;;;5063772;28;20210;-77
2021/11/23 04:48:04;;;;;;;7.13;6.50;;;;;;;;;;5051027;28;20202;-77
2021/11/23 04:50:32;;;;;;;6.55;5.78;;;;;;;;;;5053544;28;20198;-77
2021/11/23 04:53:01;;;;;;;5.95;5.35;;;;;;;;;;5054671;28;20202;-77
2021/11/23 04:55:30;;;;;;;7.38;6.05;;;;;;;;;;5064030;28;20193;-78
2021/11/23 04:57:57;;;;;;;7.82;5.70;;;;;;;;;;5070511;28;20237;-78
2021/11/23 05:00:24;;;;;;;10.82;6.40;;;;;;;;;;5054670;28;20226;-78
2021/11/23 05:02:51;;;;;;;7.15;6.25;;;;;;;;;;5061127;28;20270;-77
2021/11/23 05:05:18;;;;;;;8.35;5.90;;;;;;;;;;5054934;28;20218;-77
2021/11/23 05:07:45;;;;;;;9.43;5.63;;;;;;;;;;5054960;28;20194;-78
2021/11/23 05:10:13;;;;;;;7.60;6.45;;;;;;;;;;5062951;28;20210;-78
2021/11/23 05:12:42;;;;;;;6.25;5.65;;;;;;;;;;5051015;28;20209;-77
2021/11/23 05:15:09;;;;;;;7.13;6.43;;;;;;;;;;5053045;28;20195;-77
2021/11/23 05:17:36;;;;;;;7.95;5.80;;;;;;;;;;5059199;28;20665;-77
2021/11/23 05:20:04;;;;;;;7.63;5.80;;;;;;;;;;5068082;28;20569;-77
2021/11/23 05:22:31;;;;;;;8.55;6.60;;;;;;;;;;5060294;28;20191;-77
2021/11/23 05:24:58;;;;;;;8.27;6.22;;;;;;;;;;5056551;28;20233;-78
2021/11/23 05:27:25;;;;;;;8.82;5.50;;;;;;;;;;5072310;28;20723;-77
2021/11/23 05:29:54;;;;;;;7.65;6.05;;;;;;;;;;5064151;28;20190;-77
2021/11/23 05:32:21;;;;;;;6.75;5.60;;;;;;;;;;5059254;28;20673;-77
2021/11/23 05:34:48;;;;;;;7.03;5.93;;;;;;;;;;5059605;28;20205;-78
2021/11/23 05:37:15;;;;;;;7.80;5.50;;;;;;;;;;5065332;28;20190;-79
2021/11/23 05:39:42;;;;;;;8.10;6.40;;;;;;;;;;5069223;28;20205;-78
2021/11/23 05:42:09;;;;;;;9.55;7.00;;;;;;;;;;5064624;28;20199;-78
2021/11/23 05:44:36;;;;;;;9.30;7.05;;;;;;;;;;5070347;28;20190;-77
2021/11/23 05:47:05;;;;;;;6.22;5.25;;;;;;;;;;5068198;28;20585;-79
2021/11/23 05:49:32;;;;;;;8.80;7.30;;;;;;;;;;5056370;28;20198;-79
2021/11/23 05:51:59;;;;;;;11.35;6.57;;;;;;;;;;5061193;28;20206;-78
2021/11/23 05:54:26;;;;;;;6.57;5.15;;;;;;;;;;5065579;28;20684;-79
2021/11/23 05:56:54;;;;;;;7.75;6.05;;;;;;;;;;5057523;28;20581;-78
2021/11/23 05:59:21;;;;;;;6.93;5.35;;;;;;;;;;5063175;28;20720;-79
2021/11/23 06:01:48;;;;;;;8.82;6.82;;;;;;;;;;5061672;28;20203;-78
2021/11/23 06:04:16;;;;;;;7.70;5.85;;;;;;;;;;5056371;28;20210;-77
2021/11/23 06:06:43;;;;;;;8.20;6.10;;;;;;;;;;5063967;28;20297;-78
2021/11/23 06:09:10;;;;;;;7.95;6.22;;;;;;;;;;5063917;28;20286;-78
2021/11/23 06:11:38;;;;;;;9.80;6.60;;;;;;;;;;5057580;28;20206;-78
2021/11/23 06:14:05;;;;;;;9.05;5.95;;;;;;;;;;5069509;28;20201;-79
2021/11/23 06:16:34;;;;;;;6.88;5.78;;;;;;;;;;5063422;28;20566;-78
2021/11/23 06:19:01;;;;;;;7.78;6.95;;;;;;;;;;5056065;28;21218;-79
2021/11/23 06:21:29;;;;;;;13.65;7.88;;;;;;;;;;5062758;28;20687;-79
2021/11/23 06:23:57;;;;;;;6.93;6.07;;;;;;;;;;5063675;28;20190;-78
2021/11/23 06:26:24;;;;;;;6.85;5.15;;;;;;;;;;5053384;28;20214;-77
2021/11/23 06:28:51;;;;;;;7.88;6.50;;;;;;;;;;5059547;28;20611;-78
2021/11/23 06:31:18;;;;;;;7.65;5.97;;;;;;;;;;5056425;28;20661;-78
2021/11/23 06:33:46;;;;;;;9.30;6.80;;;;;;;;;;5062653;28;20724;-78
2021/11/23 06:36:13;;;;;;;15.75;7.43;;;;;;;;;;5066450;28;20677;-78
2021/11/23 06:38:42;;;;;;;10.05;6.80;;;;;;;;;;5061866;28;20224;-78
2021/11/23 06:41:09;;;;;;;8.70;6.13;;;;;;;;;;5064899;28;20669;-78
2021/11/23 06:43:36;;;;;;;7.43;6.63;;;;;;;;;;5061937;28;20202;-78
2021/11/23 06:46:03;;;;;;;8.18;6.47;;;;;;;;;;5063654;28;20248;-78
2021/11/23 06:48:30;;;;;;;10.30;7.10;;;;;;;;;;5066999;28;20202;-79
2021/11/23 06:50:57;;;;;;;7.45;6.05;;;;;;;;;;5058954;28;20208;-78
2021/11/23 06:53:24;;;;;;;8.93;6.80;;;;;;;;;;5053193;28;20203;-78
2021/11/23 06:55:53;;;;;;;10.07;7.50;;;;;;;;;;5066244;28;20217;-78
2021/11/23 06:58:21;;;;;;;8.50;6.63;;;;;;;;;;5068400;28;20199;-79
2021/11/23 07:00:48;;;;;;;8.10;6.13;;;;;;;;;;5059122;28;20704;-80
2021/11/23 07:03:15;;;;;;;10.65;8.00;;;;;;;;;;5061034;28;20194;-80
2021/11/23 07:05:42;;;;;;;5.90;5.22;;;;;;;;;;5061016;28;20223;-80
2021/11/23 07:08:09;;;;;;;7.95;6.20;;;;;;;;;;5060793;28;20590;-78
2021/11/23 07:10:38;;;;;;;9.40;6.90;;;;;;;;;;5060905;28;20202;-79
2021/11/23 07:13:06;;;;;;;10.60;7.60;;;;;;;;;;5071959;28;20549;-79
2021/11/23 07:15:33;;;;;;;5.95;5.30;;;;;;;;;;5054536;28;20650;-78
2021/11/23 07:18:01;;;;;;;9.63;6.90;;;;;;;;;;5055068;28;20198;-79
2021/11/23 07:20:28;;;;;;;8.00;5.60;;;;;;;;;;5062425;28;20207;-79
2021/11/23 07:22:55;;;;;;;8.07;6.78;;;;;;;;;;5059008;28;20195;-79
2021/11/23 07:25:22;;;;;;;8.75;6.03;;;;;;;;;;5064908;28;20668;-79
2021/11/23 07:27:49;;;;;;;10.65;7.80;;;;;;;;;;5052393;28;20207;-78
2021/11/23 07:30:17;;;;;;;8.40;7.53;;;;;;;;;;5062870;28;20190;-79
2021/11/23 07:32:45;;;;;;;9.75;7.78;;;;;;;;;;5055501;28;20198;-79
2021/11/23 07:35:12;;;;;;;10.98;8.85;;;;;;;;;;5061889;28;20201;-78
2021/11/23 07:37:41;;;;;;;9.50;8.10;;;;;;;;;;5062801;28;20546;-79
2021/11/23 07:40:08;;;;;;;10.27;6.95;;;;;;;;;;5064612;28;20198;-79
2021/11/23 07:42:35;;;;;;;16.08;8.40;;;;;;;;;;5052252;28;20658;-78
2021/11/23 07:45:02;;;;;;;11.75;8.38;;;;;;;;;;5060435;28;20595;-78
2021/11/23 07:47:31;;;;;;;12.75;9.57;;;;;;;;;;5060148;28;20634;-79
2021/11/23 07:49:58;;;;;;;11.15;7.60;;;;;;;;;;5054738;28;20202;-78
2021/11/23 07:52:25;;;;;;;12.38;9.00;;;;;;;;;;5063475;28;20202;-78
2021/11/23 07:54:52;;;;;;;13.02;8.35;;;;;;;;;;5052854;28;20656;-78
2021/11/23 07:57:19;;;;;;;13.30;8.95;;;;;;;;;;5052324;28;20638;-79
2021/11/23 07:59:47;;;;;;;12.30;8.82;;;;;;;;;;5064748;28;20227;-79
2021/11/23 08:02:14;;;;;;;11.00;9.52;;;;;;;;;;5061365;28;20234;-79
2021/11/23 08:04:42;;;;;;;13.27;9.15;;;;;;;;;;5058283;28;20221;-78
2021/11/23 08:07:09;;;;;;;14.25;10.15;;;;;;;;;;5062265;28;20218;-78
2021/11/23 08:09:36;;;;;;;11.25;9.45;;;;;;;;;;5057680;28;20198;-78
2021/11/23 08:12:04;;;;;;;13.35;9.82;;;;;;;;;;5050947;28;20195;-78
2021/11/23 08:14:31;;;;;;;12.23;9.45;;;;;;;;;;5055855;28;20203;-79
2021/11/23 08:16:58;;;;;;;12.82;10.10;;;;;;;;;;5059379;28;20669;-78
2021/11/23 08:19:25;;;;;;;15.52;12.40;;;;;;;;;;5055155;28;20206;-78
2021/11/23 08:21:53;;;;;;;14.75;11.15;;;;;;;;;;5059085;28;20217;-78
2021/11/23 08:24:20;;;;;;;15.50;11.98;;;;;;;;;;5057283;28;20555;-78
2021/11/23 08:26:48;;;;;;;17.80;12.75;;;;;;;;;;5059018;28;20226;-79
2021/11/23 08:29:15;;;;;;;14.93;11.88;;;;;;;;;;5061639;28;20240;-77
2021/11/23 08:31:42;;;;;;;19.02;11.43;;;;;;;;;;5061281;28;20646;-78
2021/11/23 08:34:11;;;;;;;16.70;13.13;;;;;;;;;;5057004;28;20195;-79
2021/11/23 08:36:38;;;;;;;16.73;12.30;;;;;;;;;;5055444;28;20650;-80
2021/11/23 08:39:07;;;;;;;16.08;12.35;;;;;;;;;;5056787;28;20194;-77
2021/11/23 08:41:34;;;;;;;20.10;13.52;;;;;;;;;;5057706;28;20203;-78
2021/11/23 08:44:01;;;;;;;14.93;12.95;;;;;;;;;;5056072;28;20203;-78
2021/11/23 08:46:29;;;;;;;13.65;11.25;;;;;;;;;;5059021;28;20225;-78
2021/11/23 08:48:56;;;;;;;19.50;12.88;;;;;;;;;;5057188;28;20195;-78
2021/11/23 08:51:25;;;;;;;23.58;15.43;;;;;;;;;;5055938;28;20202;-78
2021/11/23 08:53:52;;;;;;;16.95;14.23;;;;;;;;;;5066016;28;20194;-78
2021/11/23 08:56:21;;;;;;;19.10;13.52;;;;;;;;;;5065021;28;20198;-77
2021/11/23 08:58:52;;;;;;;24.35;15.27;;;;;;;;;;5063466;28;20191;-78
2021/11/23 09:01:24;;;;;;;22.38;15.90;;;;;;;;;;5063198;28;20198;-79
2021/11/23 09:03:52;;;;;;;21.42;14.68;;;;;;;;;;5067302;28;20217;-79
2021/11/23 09:06:20;;;;;;;24.75;16.75;;;;;;;;;;5060666;28;20215;-78
2021/11/23 09:08:53;;;;;;;23.00;16.38;;;;;;;;;;5056894;28;20551;-79
2021/11/23 09:11:22;;;;;;;22.77;14.88;;;;;;;;;;5063821;28;20741;-78
2021/11/23 09:13:49;;;;;;;20.80;14.50;;;;;;;;;;5064669;28;20199;-76
2021/11/23 09:16:16;;;;;;;19.20;15.30;;;;;;;;;;5060301;28;20198;-75
2021/11/23 09:18:44;;;;;;;17.60;14.15;;;;;;;;;;5055064;28;20199;-76
2021/11/23 09:21:11;;;;;;;21.17;13.32;;;;;;;;;;5061252;28;20203;-77
2021/11/23 09:23:38;;;;;;;23.25;16.77;;;;;;;;;;5060814;28;20201;-77
2021/11/23 09:26:05;;;;;;;26.33;18.15;;;;;;;;;;5062279;28;20206;-77
2021/11/23 09:28:33;;;;;;;29.30;16.65;;;;;;;;;;5060888;28;20202;-77
2021/11/23 09:31:00;;;;;;;23.52;17.25;;;;;;;;;;5066801;28;20219;-77
2021/11/23 09:33:27;;;;;;;22.05;15.77;;;;;;;;;;5058315;28;20210;-77
2021/11/23 09:35:55;;;;;;;21.17;15.18;;;;;;;;;;5061867;28;20209;-76
2021/11/23 09:38:22;;;;;;;26.80;18.20;;;;;;;;;;5060579;28;20199;-77
2021/11/23 09:40:49;;;;;;;27.83;19.05;;;;;;;;;;5066274;28;20198;-77
2021/11/23 09:43:16;;;;;;;21.00;16.33;;;;;;;;;;5067102;28;20191;-77
2021/11/23 09:45:44;;;;;;;25.15;18.95;;;;;;;;;;5059376;28;20197;-77
2021/11/23 09:48:12;;;;;;;26.35;18.77;;;;;;;;;;5064805;28;20222;-77
2021/11/23 09:50:39;;;;;;;21.92;15.93;;;;;;;;;;5053913;28;20206;-77
2021/11/23 09:53:07;;;;;;;21.85;15.88;;;;;;;;;;5060616;28;20600;-77
2021/11/23 09:55:34;;;;;;;23.20;16.67;;;;;;;;;;5056967;28;20213;-77
2021/11/23 09:58:01;;;;;;;21.65;14.75;;;;;;;;;;5056079;28;20211;-77
2021/11/23 10:00:30;;;;;;;24.50;15.90;;;;;;;;;;5059484;28;20229;-77
2021/11/23 10:03:01;;;;;;;21.10;17.98;;;;;;;;;;5065827;28;20706;-76
2021/11/23 10:05:32;;;;;;;22.73;15.80;;;;;;;;;;5058914;28;20198;-76
2021/11/23 10:08:06;;;;;;;25.55;15.88;;;;;;;;;;5063871;28;20218;-77
2021/11/23 10:10:40;;;;;;;19.45;15.10;;;;;;;;;;5054233;28;20815;-77
2021/11/23 10:13:07;;;;;;;23.30;16.33;;;;;;;;;;5063627;28;20198;-77
2021/11/23 10:15:35;;;;;;;25.52;16.83;;;;;;;;;;5054019;28;20647;-77
2021/11/23 10:18:10;;;;;;;19.98;14.20;;;;;;;;;;5054205;28;20309;-77
2021/11/23 10:20:38;;;;;;;21.98;15.57;;;;;;;;;;5060835;28;20213;-76
2021/11/23 10:23:26;;;;;;;20.10;14.65;;;;;;;;;;5061916;28;20207;-77
2021/11/23 10:25:54;;;;;;;20.63;15.23;;;;;;;;;;5055924;28;20277;-76
2021/11/23 10:28:22;;;;;;;17.90;14.20;;;;;;;;;;5060723;28;20229;-76
2021/11/23 10:30:50;;;;;;;21.80;14.02;;;;;;;;;;5061285;28;20219;-77
2021/11/23 10:33:19;;;;;;;21.73;14.77;;;;;;;;;;5054971;28;20566;-76
2021/11/23 10:35:47;;;;;;;29.42;18.67;;;;;;;;;;5062309;28;20262;-77
2021/11/23 10:38:15;;;;;;;25.60;17.77;;;;;;;;;;5067409;28;20205;-77
2021/11/23 10:40:43;;;;;;;22.30;16.30;;;;;;;;;;5061347;28;20206;-76
2021/11/23 10:43:11;;;;;;;26.48;18.35;;;;;;;;;;5055521;28;20463;-77
2021/11/23 10:45:39;;;;;;;25.58;17.35;;;;;;;;;;5062582;28;20653;-76
2021/11/23 10:48:07;;;;;;;27.08;17.40;;;;;;;;;;5054839;28;20214;-76
2021/11/23 10:50:36;;;;;;;28.20;18.33;;;;;;;;;;5053017;28;20717;-76
2021/11/23 10:53:05;;;;;;;31.10;21.38;;;;;;;;;;5058504;28;20190;-76
2021/11/23 10:55:35;;;;;;;26.48;18.55;;;;;;;;;;5059004;28;20206;-77
2021/11/23 10:58:04;;;;;;;34.30;20.75;;;;;;;;;;5058896;28;20198;-76
2021/11/23 11:00:32;;;;;;;30.60;18.98;;;;;;;;;;5060354;28;20224;-77
2021/11/23 11:03:01;;;;;;;25.77;17.42;;;;;;;;;;5059981;28;20284;-77
2021/11/23 11:05:28;;;;;;;32.17;19.80;;;;;;;;;;5061001;28;20286;-77
2021/11/23 11:07:58;;;;;;;31.70;22.33;;;;;;;;;;5058025;28;20221;-76
2021/11/23 11:10:25;;;;;;;32.20;21.08;;;;;;;;;;5056167;28;20305;-77
2021/11/23 11:12:53;;;;;;;32.00;21.25;;;;;;;;;;5060156;28;20203;-77
2021/11/23 11:15:21;;;;;;;29.80;17.67;;;;;;;;;;5053313;28;20292;-77
2021/11/23 11:17:48;;;;;;;31.23;20.20;;;;;;;;;;5059658;28;20209;-77
2021/11/23 11:20:32;;;;;;;38.58;22.38;;;;;;;;;;5058390;28;20206;-78
2021/11/23 11:23:05;;;;;;;36.35;22.83;;;;;;;;;;5061556;28;20198;-77
2021/11/23 11:25:47;;;;;;;34.42;21.95;;;;;;;;;;5065008;28;20565;-76
2021/11/23 11:28:15;;;;;;;38.05;20.73;;;;;;;;;;5063143;28;20210;-79
2021/11/23 11:30:51;;;;;;;33.83;20.15;;;;;;;;;;5064852;28;20198;-78
2021/11/23 11:33:23;;;;;;;33.10;19.48;;;;;;;;;;5059295;28;20639;-78
2021/11/23 11:35:51;;;;;;;33.90;21.25;;;;;;;;;;5062999;28;20573;-78
2021/11/23 11:38:38;;;;;;;35.28;21.83;;;;;;;;;;5072367;28;20550;-78
2021/11/23 11:41:08;;;;;;;33.00;20.85;;;;;;;;;;5066459;28;20190;-77
2021/11/23 11:43:36;;;;;;;28.50;19.15;;;;;;;;;;5061907;28;20199;-78
2021/11/23 11:46:03;;;;;;;34.67;19.20;;;;;;;;;;5062746;28;20202;-77
2021/11/23 11:48:52;;;;;;;38.83;21.15;;;;;;;;;;5055351;28;20297;-77
2021/11/23 11:51:26;;;;;;;30.88;18.92;;;;;;;;;;5055087;28;20250;-77
2021/11/23 11:53:54;;;;;;;25.67;17.02;;;;;;;;;;5056469;28;20289;-77
2021/11/23 11:56:37;;;;;;;28.35;18.40;;;;;;;;;;5065471;28;20230;-78
2021/11/23 11:59:05;;;;;;;38.75;19.88;;;;;;;;;;5067707;28;20224;-77
2021/11/23 12:01:33;;;;;;;32.42;20.05;;;;;;;;;;5053021;28;20195;-77
2021/11/23 12:04:16;;;;;;;32.28;20.92;;;;;;;;;;5066463;28;20783;-77
2021/11/23 12:07:03;;;;;;;30.10;19.27;;;;;;;;;;5052709;28;20661;-77
2021/11/23 12:09:32;;;;;;;32.30;17.27;;;;;;;;;;5064381;28;20203;-77
2021/11/23 12:12:02;;;;;;;31.77;18.20;;;;;;;;;;5053384;28;20221;-77
2021/11/23 12:14:35;;;;;;;27.02;18.48;;;;;;;;;;5066398;28;20539;-77
2021/11/23 12:17:08;;;;;;;30.05;18.55;;;;;;;;;;5060538;28;20198;-76
2021/11/23 12:19:43;;;;;;;31.10;19.60;;;;;;;;;;5063159;28;20199;-76
2021/11/23 12:22:20;;;;;;;29.75;19.50;;;;;;;;;;5054035;28;20202;-77
2021/11/23 12:24:47;;;;;;;26.85;16.85;;;;;;;;;;5052823;28;20199;-77
2021/11/23 12:27:15;;;;;;;26.02;18.40;;;;;;;;;;5062256;28;20417;-77
2021/11/23 12:29:44;;;;;;;26.73;17.65;;;;;;;;;;5064741;28;20205;-77
2021/11/23 12:32:11;;;;;;;26.52;17.33;;;;;;;;;;5057149;28;20214;-77
2021/11/23 12:34:48;;;;;;;24.00;15.32;;;;;;;;;;5055236;28;20605;-77
2021/11/23 12:37:15;;;;;;;26.13;17.65;;;;;;;;;;5058091;28;20557;-77
2021/11/23 12:39:42;;;;;;;25.35;16.50;;;;;;;;;;5051913;28;20199;-75
2021/11/23 12:42:11;;;;;;;25.58;15.65;;;;;;;;;;5057278;28;20202;-77
2021/11/23 12:44:41;;;;;;;24.45;16.33;;;;;;;;;;5062535;28;20756;-77
2021/11/23 12:47:11;;;;;;;22.52;15.35;;;;;;;;;;5062082;28;20194;-77
2021/11/23 12:49:38;;;;;;;23.10;15.95;;;;;;;;;;5052662;28;20199;-76
2021/11/23 12:52:07;;;;;;;25.02;15.07;;;;;;;;;;5052065;28;20259;-76
2021/11/23 12:54:35;;;;;;;22.35;15.80;;;;;;;;;;5054752;28;20225;-76
2021/11/23 12:57:04;;;;;;;22.33;15.65;;;;;;;;;;5063579;28;20691;-77
2021/11/23 12:59:42;;;;;;;25.48;16.55;;;;;;;;;;5067217;28;20225;-77
2021/11/23 13:02:27;;;;;;;18.95;14.65;;;;;;;;;;5055842;28;20289;-77
2021/11/23 13:04:56;;;;;;;25.00;16.48;;;;;;;;;;5056708;28;20654;-77
2021/11/23 13:07:23;;;;;;;18.50;14.55;;;;;;;;;;5065182;28;20216;-77
2021/11/23 13:09:51;;;;;;;21.80;14.18;;;;;;;;;;5060990;28;20202;-77
2021/11/23 13:12:20;;;;;;;21.67;14.90;;;;;;;;;;5067975;28;20190;-77
2021/11/23 13:14:58;;;;;;;25.58;15.40;;;;;;;;;;5049908;28;20203;-76
2021/11/23 13:17:39;;;;;;;24.60;13.68;;;;;;;;;;5055893;28;20202;-77
2021/11/23 13:20:08;;;;;;;25.17;16.23;;;;;;;;;;5063345;28;20271;-76
2021/11/23 13:22:39;;;;;;;23.13;14.68;;;;;;;;;;5061167;28;20564;-76
2021/11/23 13:25:06;;;;;;;20.73;14.25;;;;;;;;;;5056036;28;20612;-77
2021/11/23 13:27:33;;;;;;;24.02;14.23;;;;;;;;;;5050682;28;20221;-77
2021/11/23 13:30:03;;;;;;;19.95;14.30;;;;;;;;;;5053443;28;20194;-77
2021/11/23 13:32:30;;;;;;;20.70;13.55;;;;;;;;;;5053128;28;20202;-77
2021/11/23 13:35:08;;;;;;;24.48;15.27;;;;;;;;;;5059598;28;20194;-78
2021/11/23 13:37:41;;;;;;;19.10;14.02;;;;;;;;;;5063506;28;20205;-77
2021/11/23 13:40:18;;;;;;;26.10;14.65;;;;;;;;;;5062360;28;20199;-77
2021/11/23 13:42:45;;;;;;;20.00;13.70;;;;;;;;;;5066655;28;20210;-77
2021/11/23 13:45:12;;;;;;;24.08;14.23;;;;;;;;;;5073993;28;20198;-77
2021/11/23 13:47:39;;;;;;;20.23;14.88;;;;;;;;;;5062538;28;20250;-77
2021/11/23 13:50:11;;;;;;;19.25;14.50;;;;;;;;;;5053752;28;20190;-77
2021/11/23 13:52:39;;;;;;;19.45;13.23;;;;;;;;;;5053453;28;20210;-77
2021/11/23 13:55:06;;;;;;;21.98;14.95;;;;;;;;;;5056865;28;20199;-77
2021/11/23 13:57:35;;;;;;;25.15;14.93;;;;;;;;;;5058166;28;20210;-77
2021/11/23 14:00:04;;;;;;;21.08;14.35;;;;;;;;;;5067169;28;20210;-77
2021/11/23 14:02:47;;;;;;;24.00;15.43;;;;;;;;;;5057127;28;20233;-77
2021/11/23 14:05:16;;;;;;;22.52;13.77;;;;;;;;;;5058406;28;20198;-77
2021/11/23 14:07:50;;;;;;;24.60;15.70;;;;;;;;;;5058137;28;20225;-77
2021/11/23 14:10:26;;;;;;;25.15;14.88;;;;;;;;;;5069669;28;20194;-77
2021/11/23 14:12:53;;;;;;;19.63;12.90;;;;;;;;;;5054761;28;20289;-77
2021/11/23 14:15:22;;;;;;;18.52;12.77;;;;;;;;;;5061377;28;20670;-77
2021/11/23 14:18:03;;;;;;;18.02;12.93;;;;;;;;;;5066874;28;20186;-77
2021/11/23 14:20:33;;;;;;;20.17;14.43;;;;;;;;;;5057615;28;20621;-76
2021/11/23 14:23:00;;;;;;;27.80;15.30;;;;;;;;;;5058112;28;20190;-77
2021/11/23 14:25:28;;;;;;;23.20;15.10;;;;;;;;;;5062038;28;20203;-77
2021/11/23 14:27:57;;;;;;;20.80;13.82;;;;;;;;;;5061103;28;20764;-77
2021/11/23 14:30:25;;;;;;;21.17;14.68;;;;;;;;;;5057109;28;20861;-77
2021/11/23 14:32:52;;;;;;;24.55;15.50;;;;;;;;;;5059504;28;20202;-77
2021/11/23 14:35:19;;;;;;;26.65;14.98;;;;;;;;;;5055958;28;20201;-77